Time;durP1;ratioP1;P1;durP2;ratioP2;P2;SDS_P1;SDS_P2;PMS_P1;PMS_P2;Temp;Humidity;BMP_temperature;BMP_pressure;BME280_temperature;BME280_humidity;BME280_pressure;Samples;Min_cycle;Max_cycle;Signal;HPM_P1;HPM_P2
2022/11/10 00:00:42;;;;;;;33.17;16.00;;;;;;;6.74;100.00;99117.06;5151115;27;20099;-48
2022/11/10 00:03:10;;;;;;;39.38;16.77;;;;;;;6.90;100.00;99111.75;5151409;27;20469;-46
2022/11/10 00:05:38;;;;;;;33.60;16.88;;;;;;;6.83;100.00;99123.22;5150932;27;20099;-47
2022/11/10 00:08:06;;;;;;;33.92;16.55;;;;;;;7.06;100.00;99120.00;5151141;27;20542;-46
2022/11/10 00:10:55;;;;;;;34.95;16.58;;;;;;;7.11;100.00;99121.72;5151111;27;20421;-47
2022/11/10 00:13:19;;;;;;;38.50;16.95;;;;;;;6.94;100.00;99131.72;5150748;27;20051;-46
2022/11/10 00:18:30;;;;;;;42.15;17.58;;;;;;;7.12;100.00;99145.09;5151188;27;20077;-47
2022/11/10 00:21:02;;;;;;;32.97;16.02;;;;;;;6.99;100.00;99142.38;5151203;27;20082;-46
2022/11/10 00:23:28;;;;;;;37.00;17.08;;;;;;;7.18;100.00;99141.00;5151017;27;20051;-47
2022/11/10 00:25:54;;;;;;;32.40;16.48;;;;;;;7.06;100.00;99149.97;5150930;27;20189;-47
2022/11/10 00:28:21;;;;;;;36.13;17.52;;;;;;;7.18;100.00;99152.72;5150818;27;20546;-46
2022/11/10 00:30:47;;;;;;;38.97;16.42;;;;;;;7.22;100.00;99164.50;5150858;27;20137;-46
2022/11/10 00:33:14;;;;;;;38.30;16.60;;;;;;;7.17;100.00;99161.25;5150804;27;20050;-48
2022/11/10 00:35:40;;;;;;;33.17;16.63;;;;;;;7.13;100.00;99165.78;5150926;27;20836;-47
2022/11/10 00:38:06;;;;;;;37.22;16.70;;;;;;;7.02;100.00;99176.34;5150922;27;20634;-47
2022/11/10 00:40:33;;;;;;;31.30;16.73;;;;;;;7.56;100.00;99173.31;5150724;27;20096;-48
2022/11/10 00:42:59;;;;;;;36.78;16.85;;;;;;;7.46;100.00;99177.34;5150674;27;20053;-47
2022/11/10 00:45:26;;;;;;;44.97;17.42;;;;;;;7.75;100.00;99191.81;5150640;27;20129;-47
2022/11/10 00:47:52;;;;;;;34.10;15.50;;;;;;;7.14;100.00;99219.97;5150706;27;20133;-47
2022/11/10 00:50:18;;;;;;;36.53;17.05;;;;;;;7.46;100.00;99206.53;5150498;27;20487;-48
2022/11/10 00:52:45;;;;;;;37.70;18.08;;;;;;;7.91;100.00;99214.53;5150660;27;20051;-49
2022/11/10 00:55:11;;;;;;;36.42;17.00;;;;;;;7.56;100.00;99236.06;5150478;27;20514;-50
2022/11/10 00:57:37;;;;;;;39.88;18.13;;;;;;;7.24;100.00;99244.06;5153099;27;20141;-49
2022/11/10 01:00:04;;;;;;;33.88;16.45;;;;;;;7.19;100.00;99227.13;5154083;27;20050;-48
2022/11/10 01:02:31;;;;;;;38.25;18.85;;;;;;;7.03;100.00;99216.09;5153786;27;20513;-48
2022/11/10 01:04:58;;;;;;;41.92;17.15;;;;;;;7.47;100.00;99206.19;5153790;27;20528;-46
2022/11/10 01:07:24;;;;;;;43.15;18.95;;;;;;;7.49;100.00;99223.00;5153673;27;20134;-47
2022/11/10 01:09:50;;;;;;;38.10;17.63;;;;;;;7.28;100.00;99238.72;5154110;27;20069;-46
2022/11/10 01:12:17;;;;;;;36.17;18.10;;;;;;;6.99;100.00;99239.72;5153904;27;20494;-47
2022/11/10 01:14:43;;;;;;;35.13;18.85;;;;;;;7.06;100.00;99220.84;5153680;27;20137;-46
2022/11/10 01:17:09;;;;;;;37.55;17.42;;;;;;;7.15;100.00;99212.56;5153784;27;20047;-47
2022/11/10 01:19:36;;;;;;;46.20;19.13;;;;;;;7.29;100.00;99202.91;5154007;27;20084;-46
2022/11/10 01:22:02;;;;;;;43.80;18.38;;;;;;;7.20;100.00;99224.06;5153541;27;20049;-47
2022/11/10 01:24:29;;;;;;;38.65;17.98;;;;;;;7.22;100.00;99227.22;5153667;27;20078;-46
2022/11/10 01:26:55;;;;;;;37.75;19.10;;;;;;;7.47;100.00;99227.25;5153442;27;20061;-46
2022/11/10 01:29:21;;;;;;;45.00;19.80;;;;;;;7.09;100.00;99239.25;5153409;27;20051;-47
2022/11/10 01:31:48;;;;;;;46.00;18.42;;;;;;;7.20;100.00;99229.50;5153429;27;20138;-46
2022/11/10 01:34:14;;;;;;;33.60;16.65;;;;;;;7.25;100.00;99225.75;5153213;27;20560;-48
2022/11/10 01:36:41;;;;;;;44.38;18.27;;;;;;;7.69;100.00;99228.66;5153363;27;20501;-46
2022/11/10 01:39:07;;;;;;;43.58;18.85;;;;;;;7.63;100.00;99249.97;5153463;27;20086;-46
2022/11/10 01:41:33;;;;;;;43.58;20.13;;;;;;;7.51;100.00;99275.31;5153512;27;20098;-47
2022/11/10 01:44:17;;;;;;;42.58;19.63;;;;;;;7.66;100.00;99262.88;5153459;27;20046;-47
2022/11/10 01:46:43;;;;;;;47.50;19.37;;;;;;;7.31;100.00;99276.22;5153333;27;20046;-46
2022/11/10 01:49:11;;;;;;;39.13;17.92;;;;;;;7.15;100.00;99280.75;5153604;27;20287;-46
2022/11/10 01:51:43;;;;;;;42.70;17.20;;;;;;;6.90;100.00;99248.00;5153681;27;20486;-47
2022/11/10 01:54:13;;;;;;;39.05;17.40;;;;;;;6.76;100.00;99212.06;5153299;27;20525;-47
2022/11/10 01:56:44;;;;;;;32.97;17.35;;;;;;;6.76;100.00;99196.53;5152958;27;20062;-48
2022/11/10 01:59:14;;;;;;;35.35;17.58;;;;;;;7.04;100.00;99174.88;5153106;27;20077;-48
2022/11/10 02:01:41;;;;;;;40.33;18.35;;;;;;;6.81;100.00;99179.16;5153094;27;20057;-48
2022/11/10 02:04:10;;;;;;;35.42;18.35;;;;;;;7.06;100.00;99178.06;5153151;27;20146;-50
2022/11/10 02:06:40;;;;;;;37.60;17.77;;;;;;;6.87;100.00;99185.22;5152536;27;20046;-50
2022/11/10 02:09:07;;;;;;;35.25;18.48;;;;;;;6.88;100.00;99170.44;5153255;27;20050;-48
2022/11/10 02:11:35;;;;;;;38.63;19.17;;;;;;;6.93;100.00;99167.47;5153222;27;20158;-49
2022/11/10 02:14:01;;;;;;;43.30;18.30;;;;;;;7.16;100.00;99167.81;5153447;27;20519;-49
2022/11/10 02:16:28;;;;;;;39.25;18.55;;;;;;;7.15;100.00;99185.31;5153327;27;20046;-48
2022/11/10 02:18:54;;;;;;;33.30;16.65;;;;;;;6.78;100.00;99197.00;5153242;27;20046;-47
2022/11/10 02:21:22;;;;;;;41.60;18.67;;;;;;;6.84;100.00;99189.41;5152670;27;20046;-51
2022/11/10 02:23:50;;;;;;;34.45;18.13;;;;;;;7.11;100.00;99181.69;5153384;27;20149;-47
2022/11/10 02:26:21;;;;;;;41.58;20.25;;;;;;;7.26;100.00;99184.53;5152652;27;20580;-46
2022/11/10 02:28:47;;;;;;;46.78;20.30;;;;;;;7.59;100.00;99193.69;5152590;27;20051;-47
2022/11/10 02:31:14;;;;;;;47.80;21.55;;;;;;;7.77;100.00;99223.09;5152615;27;20398;-50
2022/11/10 02:33:40;;;;;;;49.00;21.55;;;;;;;7.88;100.00;99261.63;5152319;27;20133;-46
2022/11/10 02:36:07;;;;;;;61.78;24.70;;;;;;;7.90;100.00;99283.13;5152393;27;20470;-47
2022/11/10 02:38:34;;;;;;;60.38;24.25;;;;;;;7.65;100.00;99310.41;5152438;27;20050;-47
2022/11/10 02:41:01;;;;;;;54.40;23.73;;;;;;;7.45;100.00;99322.25;5152398;27;20051;-50
2022/11/10 02:43:28;;;;;;;44.60;21.95;;;;;;;7.60;100.00;99337.94;5152328;27;20474;-50
2022/11/10 02:45:54;;;;;;;47.05;21.95;;;;;;;7.57;100.00;99329.66;5152361;27;20082;-47
2022/11/10 02:48:21;;;;;;;48.03;22.10;;;;;;;7.42;100.00;99340.06;5152078;27;20187;-46
2022/11/10 02:50:47;;;;;;;44.55;22.00;;;;;;;7.47;100.00;99318.03;5152245;27;20099;-46
2022/11/10 02:53:13;;;;;;;49.75;23.58;;;;;;;7.55;100.00;99321.78;5152601;27;20506;-49
2022/11/10 02:55:41;;;;;;;53.45;23.15;;;;;;;7.17;100.00;99316.66;5152430;27;20086;-50
2022/11/10 02:58:07;;;;;;;62.25;25.05;;;;;;;7.13;100.00;99283.81;5152420;27;20161;-47
2022/11/10 03:00:33;;;;;;;47.92;22.77;;;;;;;6.97;100.00;99261.06;5152318;27;20641;-49
2022/11/10 03:03:01;;;;;;;51.05;21.20;;;;;;;7.07;100.00;99244.28;5152184;27;20516;-47
2022/11/10 03:05:28;;;;;;;46.67;21.23;;;;;;;7.12;100.00;99244.03;5152453;27;20086;-46
2022/11/10 03:07:56;;;;;;;36.50;18.92;;;;;;;6.87;100.00;99235.06;5152442;27;20050;-47
2022/11/10 03:10:22;;;;;;;38.05;18.95;;;;;;;6.96;100.00;99224.81;5152084;27;20046;-47
2022/11/10 03:12:53;;;;;;;48.60;20.02;;;;;;;6.78;100.00;99212.53;5152343;27;20130;-47
2022/11/10 03:15:19;;;;;;;51.13;21.90;;;;;;;7.20;100.00;99190.56;5151894;27;20175;-50
2022/11/10 03:17:46;;;;;;;35.75;18.70;;;;;;;7.05;100.00;99195.53;5151974;27;20058;-51
2022/11/10 03:20:12;;;;;;;42.80;19.95;;;;;;;7.22;100.00;99199.16;5150801;27;20047;-47
2022/11/10 03:22:38;;;;;;;41.75;18.92;;;;;;;6.88;100.00;99209.38;5151673;27;20062;-47
2022/11/10 03:25:05;;;;;;;46.75;21.27;;;;;;;6.95;100.00;99201.44;5152036;27;20042;-51
2022/11/10 03:27:31;;;;;;;42.05;20.60;;;;;;;6.94;100.00;99207.25;5151850;27;20110;-50
2022/11/10 03:29:58;;;;;;;43.38;20.95;;;;;;;6.77;100.00;99206.31;5152178;27;20134;-47
2022/11/10 03:32:25;;;;;;;38.22;21.08;;;;;;;6.97;100.00;99182.03;5151803;27;20114;-49
2022/11/10 03:34:51;;;;;;;41.80;21.48;;;;;;;6.83;100.00;99198.69;5151908;27;20394;-47
2022/11/10 03:37:17;;;;;;;37.97;21.33;;;;;;;7.32;100.00;99180.41;5151468;27;20054;-47
2022/11/10 03:39:43;;;;;;;40.80;20.88;;;;;;;6.99;100.00;99196.09;5151654;27;20043;-48
2022/11/10 03:42:10;;;;;;;47.17;21.33;;;;;;;7.01;100.00;99202.81;5151467;27;20103;-48
2022/11/10 03:44:36;;;;;;;37.08;20.63;;;;;;;7.01;100.00;99218.38;5151579;27;20502;-50
2022/11/10 03:47:03;;;;;;;40.75;20.08;;;;;;;6.92;100.00;99217.66;5151254;27;20082;-47
2022/11/10 03:49:30;;;;;;;37.95;19.58;;;;;;;6.91;100.00;99207.91;5151249;27;20130;-46
2022/11/10 03:51:56;;;;;;;34.65;18.60;;;;;;;7.24;100.00;99203.16;5151235;27;20413;-48
2022/11/10 03:54:22;;;;;;;44.00;21.10;;;;;;;7.41;100.00;99217.69;5151194;27;20082;-46
2022/11/10 03:56:49;;;;;;;42.08;21.08;;;;;;;7.10;100.00;99237.31;5151269;27;20046;-48
2022/11/10 03:59:15;;;;;;;41.58;19.33;;;;;;;7.05;100.00;99230.97;5151154;27;20047;-47
2022/11/10 04:01:41;;;;;;;38.63;18.80;;;;;;;7.32;100.00;99231.44;5151350;27;20046;-47
2022/11/10 04:08:57;;;;;;;42.72;19.65;;;;;;;7.25;100.00;99244.84;5151234;27;20408;-47
2022/11/10 04:09:41;;;;;;;39.25;20.48;;;;;;;7.44;100.00;99285.19;5151111;27;20054;-50
2022/11/10 04:17:36;;;;;;;39.00;20.52;;;;;;;7.74;100.00;99315.78;5151111;27;20471;-49
2022/11/10 04:20:05;;;;;;;44.80;20.15;;;;;;;7.43;100.00;99335.41;5150964;27;20054;-49
2022/11/10 04:25:15;;;;;;;39.03;19.15;;;;;;;7.40;100.00;99342.38;5151439;27;20092;-49
2022/11/10 04:27:41;;;;;;;44.22;20.67;;;;;;;6.90;100.00;99335.22;5150847;27;20104;-48
2022/11/10 04:30:09;;;;;;;40.22;19.52;;;;;;;6.75;100.00;99300.41;5151387;27;20085;-50
2022/11/10 04:32:35;;;;;;;43.05;20.23;;;;;;;6.78;100.00;99267.84;5154410;27;20058;-48
2022/11/10 04:35:01;;;;;;;39.20;19.25;;;;;;;6.47;100.00;99238.34;5154061;27;20089;-47
2022/11/10 04:37:28;;;;;;;38.83;18.88;;;;;;;6.33;100.00;99194.25;5154316;27;20494;-48
2022/11/10 04:39:54;;;;;;;36.63;18.45;;;;;;;6.21;100.00;99167.03;5154243;27;20458;-49
2022/11/10 04:42:21;;;;;;;37.92;18.55;;;;;;;6.26;100.00;99143.09;5154221;27;20057;-51
2022/11/10 04:44:47;;;;;;;37.05;19.63;;;;;;;6.41;100.00;99132.69;5154043;27;20149;-48
2022/11/10 04:47:13;;;;;;;42.55;20.20;;;;;;;6.45;100.00;99125.44;5153827;27;20096;-50
2022/11/10 04:49:40;;;;;;;44.47;21.60;;;;;;;6.54;100.00;99128.88;5154005;27;20486;-47
2022/11/10 04:52:06;;;;;;;40.75;18.48;;;;;;;6.21;100.00;99126.19;5153944;27;20498;-47
2022/11/10 04:54:33;;;;;;;40.28;19.63;;;;;;;6.51;100.00;99122.16;5153764;27;20537;-49
2022/11/10 04:56:59;;;;;;;39.58;18.27;;;;;;;6.45;100.00;99128.94;5154159;27;20604;-48
2022/11/10 04:59:25;;;;;;;39.47;17.98;;;;;;;6.40;100.00;99123.75;5153825;27;20089;-47
2022/11/10 05:01:52;;;;;;;43.92;21.77;;;;;;;7.00;100.00;99129.56;5153818;27;20057;-47
2022/11/10 05:04:18;;;;;;;47.17;21.42;;;;;;;7.28;100.00;99156.91;5154056;27;20078;-50
2022/11/10 05:06:44;;;;;;;49.72;21.00;;;;;;;6.64;100.00;99172.00;5153575;27;20525;-49
2022/11/10 05:09:10;;;;;;;54.58;23.13;;;;;;;6.76;100.00;99165.75;5153826;27;20049;-47
2022/11/10 05:11:37;;;;;;;48.38;21.05;;;;;;;6.19;100.00;99164.63;5153811;27;20058;-49
2022/11/10 05:14:04;;;;;;;45.88;22.13;;;;;;;6.59;100.00;99144.97;5153607;27;20501;-49
2022/11/10 05:16:30;;;;;;;43.33;20.17;;;;;;;6.78;100.00;99156.13;5153572;27;20091;-48
2022/11/10 05:18:57;;;;;;;45.67;21.08;;;;;;;6.64;100.00;99163.81;5153576;27;20073;-48
2022/11/10 05:21:23;;;;;;;48.13;20.73;;;;;;;6.60;100.00;99165.66;5153439;27;20046;-49
2022/11/10 05:23:49;;;;;;;43.65;21.92;;;;;;;6.92;100.00;99169.41;5153620;27;20051;-49
2022/11/10 05:26:17;;;;;;;47.60;22.45;;;;;;;6.97;100.00;99185.53;5153123;27;20047;-47
2022/11/10 05:28:45;;;;;;;48.47;21.92;;;;;;;6.56;100.00;99202.84;5153518;27;20062;-48
2022/11/10 05:31:12;;;;;;;51.55;23.58;;;;;;;6.71;100.00;99194.03;5153509;27;20478;-51
2022/11/10 05:33:39;;;;;;;44.58;21.70;;;;;;;6.62;100.00;99206.16;5153251;27;20056;-48
2022/11/10 05:36:07;;;;;;;51.42;22.50;;;;;;;6.59;100.00;99196.72;5153127;27;20047;-47
2022/11/10 05:38:33;;;;;;;34.38;16.38;;;;;;;8.39;100.00;99190.91;5153365;27;20528;-53
2022/11/10 05:40:59;;;;;;;48.47;19.63;;;;;;;8.69;100.00;99281.50;5153063;27;20051;-51
2022/11/10 05:43:26;;;;;;;47.08;21.88;;;;;;;8.00;100.00;99365.34;5151964;27;20490;-52
2022/11/10 05:45:53;;;;;;;49.05;22.35;;;;;;;7.98;100.00;99411.28;5152552;27;20089;-51
2022/11/10 05:48:19;;;;;;;45.40;21.10;;;;;;;7.36;100.00;99460.63;5152939;27;20517;-51
2022/11/10 05:50:45;;;;;;;52.03;23.20;;;;;;;7.60;100.00;99425.25;5152887;27;20137;-51
2022/11/10 05:53:12;;;;;;;46.85;21.83;;;;;;;7.32;100.00;99427.78;5152792;27;20055;-51
2022/11/10 05:55:38;;;;;;;54.53;23.05;;;;;;;7.58;100.00;99427.53;5153044;27;20548;-50
2022/11/10 05:58:05;;;;;;;49.88;21.98;;;;;;;7.10;100.00;99431.72;5152960;27;20106;-52
2022/11/10 06:00:32;;;;;;;46.17;22.92;;;;;;;7.36;100.00;99395.19;5152868;27;20072;-53
2022/11/10 06:03:01;;;;;;;52.58;25.98;;;;;;;7.63;100.00;99404.66;5152977;27;20383;-52
2022/11/10 06:05:29;;;;;;;52.00;23.25;;;;;;;7.03;100.00;99418.63;5152763;27;20047;-55
2022/11/10 06:07:55;;;;;;;49.03;23.05;;;;;;;7.22;100.00;99399.00;5152739;27;20058;-52
2022/11/10 06:10:22;;;;;;;53.92;21.98;;;;;;;6.98;100.00;99379.84;5152456;27;20138;-52
2022/11/10 06:12:48;;;;;;;52.50;23.17;;;;;;;6.98;100.00;99352.59;5152701;27;20051;-51
2022/11/10 06:15:15;;;;;;;50.55;20.70;;;;;;;7.14;100.00;99353.56;5152360;27;20046;-50
2022/11/10 06:17:42;;;;;;;49.75;22.33;;;;;;;6.94;100.00;99330.69;5152771;27;20054;-52
2022/11/10 06:20:10;;;;;;;50.47;22.63;;;;;;;7.24;100.00;99327.78;5152457;27;20524;-52
2022/11/10 06:22:36;;;;;;;49.03;23.33;;;;;;;7.48;100.00;99324.28;5152295;27;20448;-55
2022/11/10 06:25:03;;;;;;;55.30;23.23;;;;;;;7.21;100.00;99329.25;5151935;27;20141;-53
2022/11/10 06:27:30;;;;;;;49.40;23.60;;;;;;;7.75;100.00;99314.63;5152164;27;20430;-52
2022/11/10 06:29:56;;;;;;;48.38;23.42;;;;;;;7.45;100.00;99354.97;5152304;27;20042;-55
2022/11/10 06:32:23;;;;;;;45.90;20.45;;;;;;;7.00;100.00;99362.03;5152172;27;20540;-48
2022/11/10 06:34:49;;;;;;;47.80;21.45;;;;;;;7.03;100.00;99336.84;5152205;27;20046;-48
2022/11/10 06:37:16;;;;;;;47.75;21.27;;;;;;;6.96;100.00;99343.94;5152133;27;20058;-49
2022/11/10 06:39:42;;;;;;;48.20;21.23;;;;;;;7.58;100.00;99329.28;5152152;27;20046;-49
2022/11/10 06:42:09;;;;;;;47.90;21.63;;;;;;;7.41;100.00;99360.31;5151924;27;20431;-51
2022/11/10 06:44:35;;;;;;;44.97;19.40;;;;;;;7.23;100.00;99383.44;5152059;27;20046;-50
2022/11/10 06:47:01;;;;;;;47.03;21.92;;;;;;;7.58;100.00;99399.44;5151975;27;20169;-50
2022/11/10 06:49:28;;;;;;;50.90;22.23;;;;;;;7.94;100.00;99410.38;5152414;27;20921;-49
2022/11/10 06:51:54;;;;;;;45.92;21.25;;;;;;;7.98;100.00;99449.50;5151928;27;20624;-51
2022/11/10 06:54:21;;;;;;;48.97;22.50;;;;;;;8.19;100.00;99471.25;5151933;27;20042;-53
2022/11/10 06:56:47;;;;;;;45.80;22.42;;;;;;;7.89;100.00;99484.31;5151998;27;20046;-52
2022/11/10 06:59:13;;;;;;;47.30;21.98;;;;;;;7.69;100.00;99512.47;5151732;27;20137;-52
2022/11/10 07:01:40;;;;;;;47.15;20.75;;;;;;;7.57;100.00;99501.53;5151351;27;20054;-49
2022/11/10 07:04:06;;;;;;;47.35;21.23;;;;;;;7.69;100.00;99494.16;5151658;27;20050;-48
2022/11/10 07:06:32;;;;;;;49.33;22.45;;;;;;;8.15;100.00;99499.59;5151558;27;20417;-47
2022/11/10 07:08:58;;;;;;;45.28;22.83;;;;;;;7.92;100.00;99531.97;5151468;27;20497;-49
2022/11/10 07:11:25;;;;;;;53.95;23.88;;;;;;;8.21;100.00;99531.78;5151540;27;20134;-48
2022/11/10 07:13:52;;;;;;;50.33;23.95;;;;;;;8.07;100.00;99555.91;5151363;27;20082;-48
2022/11/10 07:16:18;;;;;;;50.53;23.23;;;;;;;7.87;100.00;99554.84;5151972;27;20051;-49
2022/11/10 07:18:46;;;;;;;56.17;22.77;;;;;;;7.24;100.00;99546.75;5151661;27;20047;-48
2022/11/10 07:21:12;;;;;;;51.45;22.38;;;;;;;7.23;100.00;99501.53;5151624;27;20050;-48
2022/11/10 07:23:39;;;;;;;53.97;22.73;;;;;;;7.20;100.00;99479.59;5151584;27;20505;-48
2022/11/10 07:26:05;;;;;;;53.92;24.95;;;;;;;7.15;100.00;99447.84;5151461;27;20047;-52
2022/11/10 07:28:33;;;;;;;57.92;22.75;;;;;;;7.15;100.00;99411.59;5151394;27;20069;-51
2022/11/10 07:31:01;;;;;;;48.58;21.00;;;;;;;7.12;100.00;99396.72;5151197;27;20054;-51
2022/11/10 07:33:27;;;;;;;51.95;24.88;;;;;;;7.79;100.00;99387.28;5151463;27;20078;-49
2022/11/10 07:35:56;;;;;;;58.35;23.27;;;;;;;7.70;100.00;99415.84;5151097;27;20086;-52
2022/11/10 07:38:22;;;;;;;51.38;23.90;;;;;;;8.18;100.00;99444.28;5151041;27;20050;-49
2022/11/10 07:40:51;;;;;;;56.75;25.27;;;;;;;8.08;100.00;99485.72;5151097;27;20043;-53
2022/11/10 07:43:17;;;;;;;53.72;24.60;;;;;;;7.76;100.00;99507.25;5151592;27;20053;-53
2022/11/10 07:45:44;;;;;;;50.75;22.77;;;;;;;7.52;100.00;99492.41;5151294;27;20046;-52
2022/11/10 07:48:11;;;;;;;53.22;22.08;;;;;;;8.12;100.00;99483.88;5151132;27;20057;-56
2022/11/10 07:50:37;;;;;;;59.63;24.52;;;;;;;7.98;100.00;99519.72;5151118;27;20110;-52
2022/11/10 07:53:05;;;;;;;67.80;25.70;;;;;;;7.94;100.00;99510.59;5150908;27;20459;-52
2022/11/10 07:55:32;;;;;;;63.38;24.95;;;;;;;7.22;100.00;99519.00;5150877;27;20061;-54
2022/11/10 07:57:59;;;;;;;64.10;26.95;;;;;;;7.97;100.00;99488.09;5150937;27;20466;-54
2022/11/10 08:00:26;;;;;;;63.03;26.08;;;;;;;7.59;100.00;99521.88;5151057;27;20129;-52
2022/11/10 08:02:53;;;;;;;66.93;27.95;;;;;;;8.08;100.00;99523.94;5150829;27;20051;-51
2022/11/10 08:05:20;;;;;;;63.15;26.60;;;;;;;8.26;100.00;99541.69;5151594;27;20517;-50
2022/11/10 08:07:46;;;;;;;53.03;24.50;;;;;;;7.64;100.00;99559.09;5154359;27;20133;-50
2022/11/10 08:10:12;;;;;;;67.75;25.98;;;;;;;7.58;100.00;99535.88;5154408;27;20047;-52
2022/11/10 08:12:38;;;;;;;65.32;27.38;;;;;;;7.51;100.00;99518.09;5154794;27;20046;-52
2022/11/10 08:15:05;;;;;;;62.63;25.92;;;;;;;7.80;100.00;99483.63;5154317;27;20049;-53
2022/11/10 08:17:31;;;;;;;63.85;24.75;;;;;;;7.42;100.00;99498.28;5154489;27;20096;-52
2022/11/10 08:19:58;;;;;;;63.47;26.67;;;;;;;7.52;100.00;99461.59;5154303;27;20051;-53
2022/11/10 08:22:25;;;;;;;66.88;28.98;;;;;;;7.80;100.00;99475.44;5154532;27;20046;-49
2022/11/10 08:24:51;;;;;;;66.53;27.30;;;;;;;7.57;100.00;99479.72;5154056;27;20510;-52
2022/11/10 08:27:17;;;;;;;58.38;24.05;;;;;;;6.88;100.00;99476.47;5154386;27;20137;-47
2022/11/10 08:29:44;;;;;;;60.40;25.67;;;;;;;7.47;100.00;99434.56;5154217;27;20047;-47
2022/11/10 08:32:10;;;;;;;64.85;27.10;;;;;;;7.43;100.00;99434.44;5154157;27;20615;-47
2022/11/10 08:34:36;;;;;;;72.53;26.50;;;;;;;7.16;100.00;99413.19;5154042;27;20087;-48
2022/11/10 08:37:03;;;;;;;65.43;25.70;;;;;;;7.20;100.00;99384.16;5153822;27;20089;-50
2022/11/10 08:39:30;;;;;;;68.63;25.58;;;;;;;6.94;100.00;99373.50;5153860;27;20100;-48
2022/11/10 08:41:56;;;;;;;60.60;24.30;;;;;;;6.76;100.00;99354.56;5153988;27;20093;-48
2022/11/10 08:44:22;;;;;;;54.17;23.63;;;;;;;6.89;100.00;99316.47;5154008;27;20111;-48
2022/11/10 08:46:48;;;;;;;58.13;24.60;;;;;;;6.98;100.00;99296.16;5153843;27;20065;-46
2022/11/10 08:49:15;;;;;;;56.03;25.20;;;;;;;7.06;100.00;99297.19;5153949;27;20180;-47
2022/11/10 08:51:41;;;;;;;54.65;23.77;;;;;;;6.86;100.00;99300.78;5153653;27;20095;-47
2022/11/10 08:54:08;;;;;;;56.08;22.48;;;;;;;7.13;100.00;99293.91;5154098;27;20500;-48
2022/11/10 08:56:34;;;;;;;52.95;22.25;;;;;;;7.39;100.00;99302.56;5153498;27;20108;-49
2022/11/10 08:59:01;;;;;;;50.70;20.85;;;;;;;6.97;100.00;99308.19;5153712;27;20149;-52
2022/11/10 09:01:27;;;;;;;58.05;22.67;;;;;;;7.12;100.00;99298.56;5153384;27;20093;-47
2022/11/10 09:03:53;;;;;;;49.10;21.63;;;;;;;6.95;100.00;99296.03;5153805;27;20412;-48
2022/11/10 09:06:19;;;;;;;50.38;23.40;;;;;;;7.33;100.00;99273.94;5153804;27;20052;-50
2022/11/10 09:08:46;;;;;;;54.28;23.85;;;;;;;7.18;100.00;99299.16;5154374;27;20459;-52
2022/11/10 09:11:13;;;;;;;51.85;22.77;;;;;;;7.06;100.00;99284.38;5153772;27;20410;-50
2022/11/10 09:13:39;;;;;;;61.33;25.70;;;;;;;7.37;100.00;99288.50;5153718;27;20081;-48
2022/11/10 09:16:06;;;;;;;56.78;23.42;;;;;;;7.50;100.00;99314.63;5153539;27;20116;-47
2022/11/10 09:18:33;;;;;;;70.10;24.10;;;;;;;7.56;100.00;99309.72;5152425;27;20134;-47
2022/11/10 09:20:59;;;;;;;58.25;23.23;;;;;;;7.58;100.00;99331.22;5153408;27;20568;-49
2022/11/10 09:23:25;;;;;;;59.95;22.98;;;;;;;7.86;100.00;99343.03;5153317;27;20138;-47
2022/11/10 09:25:53;;;;;;;67.47;25.08;;;;;;;7.48;100.00;99357.81;5153456;27;20051;-50
2022/11/10 09:28:21;;;;;;;60.75;22.60;;;;;;;7.24;100.00;99352.34;5153233;27;20157;-48
2022/11/10 09:30:49;;;;;;;59.05;24.70;;;;;;;7.34;100.00;99332.81;5153423;27;20111;-51
2022/11/10 09:33:15;;;;;;;55.40;24.08;;;;;;;7.89;100.00;99344.28;5153914;27;20051;-48
2022/11/10 09:35:42;;;;;;;51.30;23.00;;;;;;;7.50;100.00;99382.84;5153054;27;20082;-49
2022/11/10 09:38:10;;;;;;;50.40;22.63;;;;;;;7.12;100.00;99380.34;5153399;27;20100;-50
2022/11/10 09:40:49;;;;;;;63.17;24.17;;;;;;;7.40;100.00;99353.28;5153263;27;20058;-48
2022/11/10 09:43:22;;;;;;;63.90;24.80;;;;;;;7.25;100.00;99348.47;5153125;27;20047;-48
2022/11/10 09:45:53;;;;;;;55.90;22.45;;;;;;;7.71;100.00;99350.00;5153200;27;20150;-46
2022/11/10 09:48:25;;;;;;;56.35;24.33;;;;;;;7.39;100.00;99370.75;5153569;27;20053;-47
2022/11/10 09:50:56;;;;;;;64.25;23.90;;;;;;;7.34;100.00;99390.09;5152628;27;20509;-48
2022/11/10 09:53:27;;;;;;;65.57;24.70;;;;;;;7.84;100.00;99372.63;5152967;27;20090;-48
2022/11/10 09:55:57;;;;;;;61.72;24.48;;;;;;;7.66;100.00;99393.06;5152604;27;20078;-48
2022/11/10 09:58:31;;;;;;;73.28;28.15;;;;;;;7.20;100.00;99395.84;5152859;27;20168;-49
2022/11/10 10:01:05;;;;;;;57.97;23.95;;;;;;;7.22;100.00;99368.22;5153036;27;20118;-46
2022/11/10 10:03:31;;;;;;;;;;;;;;;7.40;100.00;99342.38;5153118;27;20597;-47
2022/11/10 10:06:06;;;;;;;71.18;28.00;;;;;;;7.82;100.00;99336.69;5152544;27;20032;-47
2022/11/10 10:08:44;;;;;;;54.72;25.00;;;;;;;7.74;100.00;99346.59;5152407;27;20058;-48
2022/11/10 10:11:24;;;;;;;58.95;23.70;;;;;;;7.69;100.00;99352.25;5152731;27;20050;-47
2022/11/10 10:14:14;;;;;;;58.63;25.30;;;;;;;7.52;100.00;99352.47;5152551;27;20089;-47
2022/11/10 10:16:50;;;;;;;58.72;24.38;;;;;;;7.40;100.00;99356.00;5152787;27;20535;-48
2022/11/10 10:19:26;;;;;;;62.95;24.75;;;;;;;7.64;100.00;99341.59;5152390;27;20137;-48
2022/11/10 10:22:23;;;;;;;57.88;23.35;;;;;;;7.72;100.00;99356.25;5152325;27;20055;-48
2022/11/10 10:24:52;;;;;;;56.47;24.00;;;;;;;7.87;100.00;99373.88;5152602;27;20425;-47
2022/11/10 10:27:22;;;;;;;60.20;24.05;;;;;;;7.64;100.00;99412.53;5152189;27;20053;-47
2022/11/10 10:29:49;;;;;;;58.05;26.05;;;;;;;7.69;100.00;99398.66;5151700;27;20050;-47
2022/11/10 10:32:17;;;;;;;55.72;23.40;;;;;;;7.25;100.00;99397.56;5152403;27;20046;-48
2022/11/10 10:34:44;;;;;;;73.78;26.00;;;;;;;7.51;100.00;99398.06;5152429;27;20076;-48
2022/11/10 10:37:22;;;;;;;71.43;25.73;;;;;;;7.45;100.00;99402.13;5152506;27;20050;-49
2022/11/10 10:39:50;;;;;;;62.67;24.05;;;;;;;7.75;100.00;99400.03;5151869;27;20145;-51
2022/11/10 10:42:29;;;;;;;67.45;27.52;;;;;;;7.86;100.00;99432.31;5152016;27;20458;-48
2022/11/10 10:45:21;;;;;;;64.10;26.80;;;;;;;7.96;100.00;99431.88;5151951;27;20103;-48
2022/11/10 10:47:49;;;;;;;69.78;26.52;;;;;;;7.96;100.00;99443.63;5152042;27;20429;-47
2022/11/10 10:50:28;;;;;;;70.68;26.58;;;;;;;7.50;100.00;99436.59;5152060;27;20165;-48
2022/11/10 10:53:11;;;;;;;63.83;27.70;;;;;;;7.62;100.00;99419.44;5151893;27;20048;-48
2022/11/10 10:55:39;;;;;;;61.75;25.92;;;;;;;7.42;100.00;99421.91;5152111;27;20570;-50
2022/11/10 10:58:19;;;;;;;80.93;30.98;;;;;;;7.71;100.00;99417.41;5151726;27;20051;-47
2022/11/10 11:00:48;;;;;;;78.65;29.90;;;;;;;7.61;100.00;99410.47;5152302;27;20529;-48
2022/11/10 11:03:24;;;;;;;66.57;28.13;;;;;;;7.69;100.00;99411.50;5151569;27;20497;-51
2022/11/10 11:06:01;;;;;;;62.78;27.10;;;;;;;7.53;100.00;99422.25;5151982;27;20531;-48
2022/11/10 11:08:27;;;;;;;83.15;30.25;;;;;;;7.66;100.00;99410.25;5151943;27;20095;-47
2022/11/10 11:10:53;;;;;;;86.65;31.60;;;;;;;7.84;100.00;99412.78;5151638;27;20412;-47
2022/11/10 11:13:21;;;;;;;85.75;30.80;;;;;;;8.01;100.00;99413.34;5151736;27;20405;-47
2022/11/10 11:15:57;;;;;;;78.63;30.83;;;;;;;7.99;100.00;99431.97;5151584;27;20042;-51
2022/11/10 11:18:26;;;;;;;80.75;32.75;;;;;;;7.89;100.00;99423.47;5151642;27;20052;-51
2022/11/10 11:20:59;;;;;;;75.78;31.35;;;;;;;7.81;100.00;99427.91;5151331;27;20426;-48
2022/11/10 11:23:40;;;;;;;76.32;30.60;;;;;;;7.81;100.00;99422.44;5151276;27;20043;-47
2022/11/10 11:26:17;;;;;;;90.88;32.53;;;;;;;8.42;100.00;99425.16;5151041;27;20051;-49
2022/11/10 11:28:53;;;;;;;77.32;32.03;;;;;;;8.61;100.00;99470.25;5151390;27;20046;-49
2022/11/10 11:31:29;;;;;;;71.40;30.63;;;;;;;8.88;100.00;99524.19;5151488;27;20050;-48
2022/11/10 11:34:04;;;;;;;71.40;29.92;;;;;;;8.18;100.00;99540.66;5151038;27;20047;-50